Flight Track Log - Related Links

Times and Time Zones

All times are in EDT time to prevent confusion due to time zone crossing. See the N310VP flight status page for this flight to view local times or setup timezone preferences in your user account.

Time Position Orientation Groundspeed Altitude Reporting Facility
EDT Latitude Longitude Course Direction KTS MPH feet Rate Location/Type
Sun 05:09:00 PM 41.9990 -79.5352 234° Southwest  Level FlightAware Approximate
Sun 05:10:00 PM 41.9732 -79.5824 234° Southwest  Level FlightAware Approximate
Sun 05:11:00 PM 41.9473 -79.6295 234° Southwest  Level FlightAware Approximate
Sun 05:12:00 PM 41.9215 -79.6766 234° Southwest  Level FlightAware Approximate
Sun 05:13:00 PM 41.8956 -79.7237 234° Southwest  Level FlightAware Approximate
Sun 05:14:00 PM 41.8697 -79.7707 234° Southwest  Level FlightAware Approximate
Sun 05:15:00 PM 41.8438 -79.8177 233° Southwest  Level FlightAware Approximate
Sun 05:16:00 PM 41.8178 -79.8646 233° Southwest  Level FlightAware Approximate
Sun 05:17:00 PM 41.7919 -79.9116 233° Southwest  Level FlightAware Approximate
Sun 05:18:00 PM 41.7659 -79.9584 233° Southwest  Level FlightAware Approximate
Sun 05:19:00 PM 41.7399 -80.0053 233° Southwest  Level FlightAware Approximate
Sun 05:20:00 PM 41.7139 -80.0521 233° Southwest  Level FlightAware Approximate
Sun 05:21:00 PM 41.6879 -80.0988 233° Southwest  Level FlightAware Approximate
Sun 05:22:00 PM 41.6618 -80.1456 233° Southwest  Level FlightAware Approximate
Sun 05:23:00 PM 41.6362 -80.1927 235° Southwest  Level FlightAware Approximate
Sun 05:24:00 PM 41.6111 -80.2403 235° Southwest  Level FlightAware Approximate
Sun 05:25:00 PM 41.5860 -80.2879 235° Southwest  Level FlightAware Approximate
Sun 05:26:00 PM 41.5609 -80.3354 235° Southwest  Level FlightAware Approximate
Sun 05:27:00 PM 41.5357 -80.3829 235° Southwest  Level FlightAware Approximate
Sun 05:28:00 PM 41.5105 -80.4304 235° Southwest  Level FlightAware Approximate
Sun 05:29:00 PM 41.4853 -80.4778 235° Southwest  Level FlightAware Approximate
Sun 05:30:00 PM 41.4601 -80.5251 235° Southwest  Level FlightAware Approximate
Sun 05:31:00 PM 41.4348 -80.5725 235° Southwest  Level FlightAware Approximate
Sun 05:32:00 PM 41.4095 -80.6198 235° Southwest  Level FlightAware Approximate
Sun 05:33:00 PM 41.3843 -80.6670 235° Southwest  Level FlightAware Approximate
Sun 05:34:00 PM 41.3589 -80.7142 234° Southwest  Level FlightAware Approximate
Sun 05:35:00 PM 41.3336 -80.7614 234° Southwest  Level FlightAware Approximate
Sun 05:36:00 PM 41.3066 -80.8117 234° Southwest  Level FlightAware Approximate
Sun 05:37:00 PM 41.2795 -80.8620 234° Southwest  Level FlightAware Approximate
Sun 05:38:00 PM 41.2524 -80.9122 234° Southwest  Level FlightAware Approximate
Sun 05:38:54 PM 41.1047 -81.2117 231° Southwest 170 196 8,100  Level Indianapolis Center
Sun 05:39:00 PM 41.2244 -80.9615 233° Southwest  Level FlightAware Approximate
Sun 05:39:56 PM 41.0764 -81.2622 233° Southwest 169 194 8,100  Level Indianapolis Center
Sun 05:40:00 PM 41.1963 -81.0107 233° Southwest  Level FlightAware Approximate
Sun 05:40:58 PM 41.0478 -81.3133 233° Southwest 170 196 8,100  Level Indianapolis Center
Sun 05:41:00 PM 41.1695 -81.0611 236° Southwest  Level FlightAware Approximate
Sun 05:42:00 PM 41.0186 -81.3628 232° Southwest 170 196 8,100  Level Indianapolis Center
Sun 05:42:00 PM 41.1438 -81.1125 236° Southwest  Level FlightAware Approximate
Sun 05:43:00 PM 41.1181 -81.1638 236° Southwest  Level FlightAware Approximate
Sun 05:43:01 PM 40.9892 -81.4133 232° Southwest 170 196 8,100  Level Indianapolis Center
Sun 05:44:00 PM 41.0914 -81.2142 231° Southwest  Level FlightAware Approximate
Sun 05:44:03 PM 40.9603 -81.4650 233° Southwest 172 198 8,100  Level Indianapolis Center
Sun 05:45:05 PM 40.9264 -81.5233 232° Southwest 171 197 8,100  Level Indianapolis Center
Sun 05:46:07 PM 40.8969 -81.5736 232° Southwest 170 196 8,100  Level Indianapolis Center
Sun 05:47:09 PM 40.8686 -81.6250 234° Southwest 171 197 8,100  Level Indianapolis Center
Sun 05:48:11 PM 40.8389 -81.6739 231° Southwest 170 196 8,100  Level Indianapolis Center
Sun 05:49:13 PM 40.8106 -81.7231 233° Southwest 168 193 8,100  Level Indianapolis Center
Sun 05:50:15 PM 40.7817 -81.7731 233° Southwest 168 193 8,100  Level Indianapolis Center
Sun 05:51:17 PM 40.7458 -81.8133 220° Southwest 169 194 8,100  Level Indianapolis Center
Sun 05:52:19 PM 40.7081 -81.8539 219° Southwest 170 196 8,100  Level Indianapolis Center
Sun 05:53:21 PM 40.6650 -81.9011 220° Southwest 171 197 8,100  Level Indianapolis Center
Sun 05:54:23 PM 40.6272 -81.9428 220° Southwest 173 199 8,100  Level Indianapolis Center
Sun 05:55:25 PM 40.5908 -81.9894 224° Southwest 176 203 8,100  Level Indianapolis Center
Sun 05:56:26 PM 40.5539 -82.0325 222° Southwest 177 204 8,100  Level Indianapolis Center
Sun 05:57:28 PM 40.5144 -82.0664 213° Southwest 173 199 8,100  Level Indianapolis Center
Sun 05:58:30 PM 40.4767 -82.1058 218° Southwest 171 197 8,100  Level Indianapolis Center
Sun 05:59:32 PM 40.4467 -82.1578 233° Southwest 175 201 8,100  Level Indianapolis Center
Sun 06:00:34 PM 40.4289 -82.2169 248° West 176 203 8,100  Level Indianapolis Center
Sun 06:01:36 PM 40.4006 -82.2800 239° Southwest 172 198 8,100  Level Indianapolis Center
Sun 06:02:38 PM 40.3786 -82.3344 242° Southwest 167 192 8,100  Level Indianapolis Center
Sun 06:03:40 PM 40.3564 -82.3906 243° Southwest 170 196 8,100  Level Indianapolis Center
Sun 06:04:42 PM 40.3344 -82.4464 243° Southwest 171 197 8,100 -214 Level Indianapolis Center
Sun 06:06:00 PM 40.3025 -82.5247 242° Southwest 173 199 7,600 -484 Descending Indianapolis Center
Sun 06:06:46 PM 40.2864 -82.5600 239° Southwest 176 203 7,100 -722 Descending Indianapolis Center
Sun 06:07:48 PM 40.2650 -82.6181 244° Southwest 177 204 6,300 -774 Descending Indianapolis Center
Sun 06:08:50 PM 40.2428 -82.6747 243° Southwest 175 201 5,500 -823 Descending Indianapolis Center
Sun 06:09:52 PM 40.2203 -82.7322 243° Southwest 175 201 4,600 -738 Descending Indianapolis Center
Sun 06:10:52 PM 40.1908 -82.8006 241° Southwest 174 200 4,000 -545 Descending Indianapolis Center
Sun 06:11:53 PM 40.1694 -82.8519 241° Southwest 162 186 3,500 -448 Descending Indianapolis Center
Sun 06:13:06 PM 40.1419 -82.9186 242° Southwest 170 196 3,000 -403 Descending Indianapolis Center
Sun 06:14:07 PM 40.1125 -82.9631 229° Southwest 161 185 2,600 -344 Descending Indianapolis Center
Sun 06:15:08 PM 40.0883 -82.9975 227° Southwest 113 130 2,300 -443 Descending Indianapolis Center
Sun 06:16:09 PM 40.0789 -83.0317 250° West 99 114 1,700 -590 Descending Indianapolis Center
Sun 06:18:00 PM 40.0667 -83.0667 237° Southwest  Level FlightAware Approximate
Sun 06:25:00 PM 40.0798 -83.0732 237° Southwest  Level Estimated

Login

Don't have an account? Register now (free) for customized features, flight alerts, and more!